Time;durP1;ratioP1;P1;durP2;ratioP2;P2;SDS_P1;SDS_P2;PMS_P1;PMS_P2;Temp;Humidity;BMP_temperature;BMP_pressure;BME280_temperature;BME280_humidity;BME280_pressure;Samples;Min_cycle;Max_cycle;Signal;HPM_P1;HPM_P2
2022/06/09 00:01:03;;;;;;;39.58;14.45;;;15.00;99.90;;;;;;5011999;28;20034;-81
2022/06/09 00:03:39;;;;;;;40.42;14.15;;;15.10;99.90;;;;;;5011912;28;20176;-82
2022/06/09 00:06:09;;;;;;;37.42;14.02;;;15.10;99.90;;;;;;5011886;28;20062;-82
2022/06/09 00:08:36;;;;;;;40.45;14.07;;;15.10;99.90;;;;;;4995996;28;20052;-81
2022/06/09 00:11:06;;;;;;;38.42;12.38;;;15.10;99.90;;;;;;5011517;28;20046;-81
2022/06/09 00:13:34;;;;;;;33.20;13.05;;;15.10;99.90;;;;;;5011742;28;20041;-81
2022/06/09 00:16:01;;;;;;;39.13;13.68;;;15.10;99.90;;;;;;4995841;28;20497;-81
2022/06/09 00:18:27;;;;;;;42.00;13.88;;;15.10;99.90;;;;;;5011780;28;20077;-81
2022/06/09 00:20:53;;;;;;;;;;;15.10;99.90;;;;;;4995663;28;20041;-81
2022/06/09 00:23:19;;;;;;;35.50;13.43;;;15.10;99.90;;;;;;4994767;28;19948;-82
2022/06/09 00:25:45;;;;;;;;;;;15.10;99.90;;;;;;5012160;28;20509;-82
2022/06/09 00:28:11;;;;;;;37.10;13.10;;;15.10;99.90;;;;;;5011281;28;20004;-82
2022/06/09 00:30:37;;;;;;;36.28;13.50;;;15.00;99.90;;;;;;4995379;28;20061;-81
2022/06/09 00:33:02;;;;;;;38.72;13.05;;;15.00;99.90;;;;;;5011332;28;20038;-82
2022/06/09 00:35:28;;;;;;;29.42;12.75;;;15.00;99.90;;;;;;5011812;28;20081;-82
2022/06/09 00:37:55;;;;;;;36.67;14.10;;;15.00;99.90;;;;;;5011389;28;20084;-82
2022/06/09 00:40:22;;;;;;;41.92;13.55;;;15.00;99.90;;;;;;5010475;28;20042;-82
2022/06/09 00:42:47;;;;;;;37.85;13.77;;;15.00;99.90;;;;;;4978774;28;20100;-82
2022/06/09 00:45:46;;;;;;;36.55;13.00;;;15.00;99.90;;;;;;4994609;28;20133;-83
2022/06/09 00:48:33;;;;;;;39.53;13.52;;;15.00;99.90;;;;;;5010840;28;20046;-83
2022/06/09 00:51:10;;;;;;;47.00;14.40;;;14.90;99.90;;;;;;5011395;28;20046;-83
2022/06/09 00:53:38;;;;;;;41.95;15.38;;;14.90;99.90;;;;;;5011510;28;20125;-83
2022/06/09 00:56:06;;;;;;;45.97;15.13;;;14.90;99.90;;;;;;5010983;28;20045;-83
2022/06/09 00:58:36;;;;;;;37.60;14.23;;;14.90;99.90;;;;;;4995134;28;20042;-82
2022/06/09 01:01:07;;;;;;;36.50;13.98;;;14.80;99.90;;;;;;5011293;28;20486;-82
2022/06/09 01:03:40;;;;;;;33.58;14.45;;;14.90;99.90;;;;;;5011151;28;20046;-82
2022/06/09 01:06:10;;;;;;;39.50;14.48;;;14.80;99.90;;;;;;5011143;28;20037;-82
2022/06/09 01:08:45;;;;;;;32.28;14.43;;;14.80;99.90;;;;;;4995973;28;20137;-82
2022/06/09 01:11:11;;;;;;;40.28;15.10;;;14.80;99.90;;;;;;4996420;28;20054;-83
2022/06/09 01:13:36;;;;;;;37.63;15.43;;;14.80;99.90;;;;;;4995236;28;20095;-83
2022/06/09 01:16:37;;;;;;;40.50;15.18;;;14.80;99.90;;;;;;4994938;28;20049;-83
2022/06/09 01:19:21;;;;;;;44.78;15.95;;;14.80;99.90;;;;;;4998319;28;20061;-83
2022/06/09 01:22:03;;;;;;;39.60;15.48;;;14.80;99.90;;;;;;4994710;28;20053;-82
2022/06/09 01:25:13;;;;;;;43.83;16.33;;;14.80;99.90;;;;;;5011138;28;20049;-82
2022/06/09 01:28:17;;;;;;;47.47;16.90;;;14.70;99.90;;;;;;5011086;28;20049;-82
2022/06/09 01:30:43;;;;;;;39.88;17.00;;;14.70;99.90;;;;;;5011011;28;20092;-82
2022/06/09 01:33:22;;;;;;;45.90;17.35;;;14.70;99.90;;;;;;5013381;28;20113;-82
2022/06/09 01:36:03;;;;;;;41.67;16.42;;;14.70;99.90;;;;;;5015221;28;20128;-82
2022/06/09 01:38:29;;;;;;;50.72;17.63;;;14.70;99.90;;;;;;5011181;28;20552;-82
2022/06/09 01:40:55;;;;;;;44.80;16.77;;;14.70;99.90;;;;;;4994734;28;20046;-82
2022/06/09 01:43:21;;;;;;;45.97;17.00;;;14.70;99.90;;;;;;5010431;28;20846;-82
2022/06/09 01:46:06;;;;;;;47.20;17.23;;;14.70;99.90;;;;;;5011229;28;20034;-83
2022/06/09 01:48:33;;;;;;;43.70;17.45;;;14.60;99.90;;;;;;4994634;28;20048;-83
2022/06/09 01:51:11;;;;;;;43.58;18.08;;;14.70;99.90;;;;;;4994415;28;20495;-82
2022/06/09 01:53:48;;;;;;;44.88;18.10;;;14.70;99.90;;;;;;5014127;28;20069;-83
2022/06/09 01:56:27;;;;;;;40.05;17.50;;;14.60;99.90;;;;;;5013587;28;20058;-82
2022/06/09 01:58:59;;;;;;;41.33;18.67;;;14.70;99.90;;;;;;5014266;28;20096;-82
2022/06/09 02:01:35;;;;;;;47.72;18.90;;;14.60;99.90;;;;;;4997324;28;20045;-82
2022/06/09 02:04:06;;;;;;;51.67;18.50;;;14.70;99.90;;;;;;4997518;28;20045;-82
2022/06/09 02:06:33;;;;;;;47.10;18.35;;;14.70;99.90;;;;;;5013465;28;20034;-82
2022/06/09 02:09:00;;;;;;;41.80;17.45;;;14.70;99.90;;;;;;5014241;28;20120;-83
2022/06/09 02:11:27;;;;;;;43.25;18.05;;;14.60;99.90;;;;;;5013906;28;20038;-82
2022/06/09 02:13:56;;;;;;;48.03;18.75;;;14.60;99.90;;;;;;5014225;28;20088;-82
2022/06/09 02:16:24;;;;;;;46.90;18.15;;;14.60;99.90;;;;;;4997053;28;20121;-82
2022/06/09 02:18:54;;;;;;;48.80;18.27;;;14.60;99.90;;;;;;5013856;28;20085;-83
2022/06/09 02:21:33;;;;;;;42.65;17.80;;;14.60;99.90;;;;;;5013836;28;20124;-83
2022/06/09 02:24:00;;;;;;;43.45;17.95;;;14.60;99.90;;;;;;5013522;28;20107;-82
2022/06/09 02:26:26;;;;;;;40.22;18.15;;;14.60;99.90;;;;;;4997563;28;20071;-82
2022/06/09 02:28:52;;;;;;;49.03;19.60;;;14.60;99.90;;;;;;5013939;28;20037;-82
2022/06/09 02:31:20;;;;;;;48.83;18.83;;;14.60;99.90;;;;;;5013832;28;20038;-82
2022/06/09 02:33:46;;;;;;;45.92;19.27;;;14.60;99.90;;;;;;4997461;28;20494;-83
2022/06/09 02:36:12;;;;;;;55.40;20.75;;;14.60;99.90;;;;;;4996865;28;20046;-82
2022/06/09 02:38:37;;;;;;;44.08;18.23;;;14.60;99.90;;;;;;5013537;28;20076;-83
2022/06/09 02:41:03;;;;;;;44.65;18.45;;;14.60;99.90;;;;;;4996876;28;20042;-83
2022/06/09 02:43:29;;;;;;;46.65;18.60;;;14.60;99.90;;;;;;4997137;28;20042;-83
2022/06/09 02:45:55;;;;;;;44.53;18.48;;;14.60;99.90;;;;;;5013458;28;20038;-83
2022/06/09 02:48:20;;;;;;;51.85;20.30;;;14.60;99.90;;;;;;5013357;28;20045;-83
2022/06/09 02:50:47;;;;;;;48.67;18.67;;;14.60;99.90;;;;;;5013308;28;20049;-83
2022/06/09 02:53:14;;;;;;;50.40;19.38;;;14.50;99.90;;;;;;5013478;28;20567;-82
2022/06/09 02:55:40;;;;;;;40.83;19.27;;;14.50;99.90;;;;;;4996450;28;20058;-83
2022/06/09 02:58:06;;;;;;;46.85;19.95;;;14.50;99.90;;;;;;5012611;28;20187;-82
2022/06/09 03:00:32;;;;;;;;;;;14.40;99.90;;;;;;5013490;28;20060;-82
2022/06/09 03:03:00;;;;;;;45.53;20.10;;;14.40;99.90;;;;;;4996194;28;19922;-83
2022/06/09 03:05:28;;;;;;;45.35;20.00;;;14.40;99.90;;;;;;5012985;28;20049;-83
2022/06/09 03:07:54;;;;;;;49.72;19.73;;;14.40;99.90;;;;;;5013003;28;20077;-83
2022/06/09 03:10:21;;;;;;;51.72;20.50;;;14.40;99.90;;;;;;4996851;28;20076;-83
2022/06/09 03:12:47;;;;;;;53.70;21.33;;;14.30;99.90;;;;;;5012933;28;20053;-83
2022/06/09 03:15:16;;;;;;;53.58;20.95;;;14.30;99.90;;;;;;4995999;28;20045;-82
2022/06/09 03:17:42;;;;;;;51.22;20.52;;;14.40;99.90;;;;;;4996693;28;20661;-83
2022/06/09 03:20:14;;;;;;;58.05;21.80;;;14.30;99.90;;;;;;4996324;28;20093;-83
2022/06/09 03:22:40;;;;;;;51.63;21.48;;;14.40;99.90;;;;;;5013049;28;20480;-82
2022/06/09 03:25:05;;;;;;;52.45;22.17;;;14.30;99.90;;;;;;4996088;28;20038;-82
2022/06/09 03:27:31;;;;;;;57.35;21.83;;;14.40;99.90;;;;;;4980239;28;20041;-82
2022/06/09 03:29:59;;;;;;;53.03;20.60;;;14.40;99.90;;;;;;4996370;28;20101;-83
2022/06/09 03:32:24;;;;;;;56.58;21.75;;;14.40;99.90;;;;;;4996286;28;20191;-83
2022/06/09 03:34:50;;;;;;;57.45;22.30;;;14.40;99.90;;;;;;4996550;28;20472;-83
2022/06/09 03:37:16;;;;;;;56.10;21.48;;;14.40;99.90;;;;;;4995978;28;20042;-83
2022/06/09 03:39:41;;;;;;;53.55;21.35;;;14.40;99.90;;;;;;4996585;28;20041;-83
2022/06/09 03:42:07;;;;;;;46.67;20.13;;;14.40;99.90;;;;;;4995644;28;20038;-83
2022/06/09 03:44:33;;;;;;;46.10;21.08;;;14.40;99.90;;;;;;5012272;28;20041;-82
2022/06/09 03:46:59;;;;;;;49.70;19.90;;;14.40;99.90;;;;;;4979414;28;20034;-83
2022/06/09 03:49:24;;;;;;;46.27;19.10;;;14.40;99.90;;;;;;5012027;28;20641;-82
2022/06/09 03:51:50;;;;;;;44.60;19.83;;;14.40;99.90;;;;;;5012412;28;20281;-82
2022/06/09 03:54:16;;;;;;;41.28;18.63;;;14.40;99.90;;;;;;4995779;28;20299;-81
2022/06/09 03:56:42;;;;;;;42.97;19.73;;;14.40;99.90;;;;;;4995945;28;20053;-84
2022/06/09 03:59:09;;;;;;;;;;;14.40;99.90;;;;;;4995958;28;20042;-82
2022/06/09 04:01:34;;;;;;;44.13;19.60;;;14.40;99.90;;;;;;4995515;28;20015;-83
2022/06/09 04:04:00;;;;;;;43.88;20.88;;;14.40;99.90;;;;;;5011832;28;20141;-82
2022/06/09 04:06:26;;;;;;;51.30;22.02;;;14.40;99.90;;;;;;4995753;28;20072;-83
2022/06/09 04:08:52;;;;;;;49.58;22.27;;;14.40;99.90;;;;;;5011916;28;20045;-83
2022/06/09 04:11:20;;;;;;;52.80;22.13;;;14.40;99.90;;;;;;4995220;28;20073;-83
2022/06/09 04:13:46;;;;;;;48.90;22.05;;;14.40;99.90;;;;;;4995368;28;20072;-83
2022/06/09 04:16:23;;;;;;;45.53;22.70;;;14.40;99.90;;;;;;5010648;28;20549;-83
2022/06/09 04:18:48;;;;;;;;;;;14.40;99.90;;;;;;5012178;28;20048;-82
2022/06/09 04:21:14;;;;;;;43.47;20.27;;;14.50;99.90;;;;;;5011223;28;20429;-82
2022/06/09 04:23:40;;;;;;;37.05;19.08;;;14.50;99.90;;;;;;5011749;28;20046;-83
2022/06/09 04:26:06;;;;;;;44.05;21.23;;;14.50;99.90;;;;;;5011672;28;20137;-82
2022/06/09 04:28:31;;;;;;;49.42;21.67;;;14.50;99.90;;;;;;5011338;28;20098;-83
2022/06/09 04:30:57;;;;;;;40.25;20.08;;;14.50;99.90;;;;;;5011712;28;20046;-83
2022/06/09 04:33:23;;;;;;;36.72;19.15;;;14.50;99.90;;;;;;5011514;28;20048;-83
2022/06/09 04:35:48;;;;;;;38.95;19.55;;;14.50;99.90;;;;;;5011438;28;20100;-83
2022/06/09 04:38:14;;;;;;;39.40;19.90;;;14.60;99.90;;;;;;5011596;28;20038;-83
2022/06/09 04:40:41;;;;;;;39.15;19.52;;;14.60;99.90;;;;;;5011431;28;20042;-83
2022/06/09 04:43:10;;;;;;;38.55;20.00;;;14.60;99.90;;;;;;4994679;28;20046;-83
2022/06/09 04:45:37;;;;;;;36.15;19.83;;;14.60;99.90;;;;;;5011368;28;20034;-83
2022/06/09 04:48:04;;;;;;;35.67;20.08;;;14.60;99.90;;;;;;5011458;28;20448;-83
2022/06/09 04:50:30;;;;;;;34.63;19.60;;;14.60;99.90;;;;;;5011422;28;20046;-83
2022/06/09 04:52:57;;;;;;;;;;;14.60;99.90;;;;;;5011486;28;20072;-83
2022/06/09 04:55:22;;;;;;;37.58;19.98;;;14.60;99.90;;;;;;5010930;28;19960;-83
2022/06/09 04:57:48;;;;;;;31.98;19.08;;;14.60;99.90;;;;;;5011234;28;20053;-83
2022/06/09 05:00:16;;;;;;;36.00;20.17;;;14.60;99.90;;;;;;5010945;28;20494;-83
2022/06/09 05:02:42;;;;;;;36.63;19.90;;;14.50;99.90;;;;;;4994734;28;20046;-83
2022/06/09 05:05:15;;;;;;;36.65;19.08;;;14.50;99.90;;;;;;4994749;28;20512;-84
2022/06/09 05:07:42;;;;;;;33.97;20.10;;;14.50;99.90;;;;;;5011211;28;20139;-84
2022/06/09 05:10:08;;;;;;;39.67;20.52;;;14.50;99.90;;;;;;4991329;28;20038;-83
2022/06/09 05:12:34;;;;;;;40.03;21.10;;;14.50;99.90;;;;;;4975386;28;20094;-83
2022/06/09 05:15:00;;;;;;;40.40;20.27;;;14.50;99.90;;;;;;4975118;28;20438;-83
2022/06/09 05:17:26;;;;;;;35.85;21.65;;;14.50;99.90;;;;;;4991151;28;20049;-83
2022/06/09 05:19:51;;;;;;;40.78;21.50;;;14.50;99.90;;;;;;4991583;28;20054;-84
2022/06/09 05:22:17;;;;;;;39.50;21.08;;;14.50;99.90;;;;;;4975184;28;20046;-83
2022/06/09 05:24:43;;;;;;;36.42;20.42;;;14.50;99.90;;;;;;4975122;28;20039;-83
2022/06/09 05:27:11;;;;;;;36.70;21.50;;;14.50;99.90;;;;;;5009980;28;20137;-83
2022/06/09 05:29:36;;;;;;;41.47;22.50;;;14.50;99.90;;;;;;4998713;28;20292;-83
2022/06/09 05:32:03;;;;;;;38.70;21.27;;;14.60;99.90;;;;;;5014581;28;20382;-83
2022/06/09 05:34:30;;;;;;;36.42;20.35;;;14.60;99.90;;;;;;4998770;28;20517;-82
2022/06/09 05:36:57;;;;;;;38.35;20.73;;;14.60;99.90;;;;;;5014980;28;20046;-83
2022/06/09 05:44:55;;;;;;;39.35;21.55;;;14.80;99.90;;;;;;5014818;28;20515;-83
2022/06/09 05:47:23;;;;;;;35.97;21.02;;;14.80;99.90;;;;;;5014266;28;20112;-83
2022/06/09 05:49:53;;;;;;;34.75;19.60;;;14.90;99.90;;;;;;5014528;28;20037;-84
2022/06/09 05:52:23;;;;;;;36.70;20.50;;;14.90;99.90;;;;;;4982177;28;20080;-84
2022/06/09 05:54:51;;;;;;;41.05;22.20;;;15.00;99.90;;;;;;5014256;28;20137;-84
2022/06/09 05:57:18;;;;;;;33.15;20.55;;;15.10;99.90;;;;;;4997726;28;20046;-84
2022/06/09 05:59:43;;;;;;;28.83;18.50;;;15.10;99.90;;;;;;5014296;28;20057;-84
2022/06/09 06:02:11;;;;;;;34.50;19.42;;;15.10;99.90;;;;;;4997315;28;20038;-83
2022/06/09 06:04:37;;;;;;;30.77;19.65;;;15.10;99.90;;;;;;4998049;28;20040;-84
2022/06/09 06:07:03;;;;;;;29.05;18.92;;;15.10;99.90;;;;;;4997587;28;20038;-83
2022/06/09 06:09:29;;;;;;;27.52;18.98;;;15.10;99.90;;;;;;5014165;28;20041;-84
2022/06/09 06:11:55;;;;;;;26.48;18.55;;;15.10;99.90;;;;;;4981314;28;20045;-83
2022/06/09 06:14:23;;;;;;;27.58;18.98;;;15.10;99.90;;;;;;5020627;28;20045;-84
2022/06/09 06:16:49;;;;;;;31.67;18.75;;;15.10;99.90;;;;;;5014576;28;20049;-83
2022/06/09 06:19:19;;;;;;;26.23;17.90;;;15.10;99.90;;;;;;5013471;28;20048;-84
2022/06/09 06:21:46;;;;;;;26.17;18.30;;;15.10;99.90;;;;;;5013756;28;20080;-84
2022/06/09 06:24:12;;;;;;;28.60;18.40;;;15.10;99.90;;;;;;5013370;28;20142;-84
2022/06/09 06:26:38;;;;;;;;;;;15.20;99.90;;;;;;4997660;28;20088;-84
2022/06/09 06:29:06;;;;;;;24.40;16.83;;;15.30;99.90;;;;;;5013354;28;19921;-84
2022/06/09 06:31:32;;;;;;;26.88;18.40;;;15.40;99.90;;;;;;5013645;28;20052;-84
2022/06/09 06:33:58;;;;;;;23.42;16.73;;;15.50;99.90;;;;;;5013445;28;20080;-83
2022/06/09 06:36:24;;;;;;;21.95;14.93;;;15.70;99.90;;;;;;4997132;28;20045;-84
2022/06/09 06:38:50;;;;;;;21.02;15.63;;;15.90;99.90;;;;;;5012600;28;20041;-84
2022/06/09 06:41:17;;;;;;;21.73;15.40;;;16.00;99.90;;;;;;4996757;28;20048;-83
2022/06/09 06:43:47;;;;;;;21.50;15.40;;;16.00;99.90;;;;;;4997065;28;20041;-84
2022/06/09 06:46:14;;;;;;;19.85;14.75;;;16.20;99.90;;;;;;5013260;28;20478;-84
2022/06/09 06:48:40;;;;;;;22.55;14.55;;;16.40;99.90;;;;;;4980870;28;20517;-83
2022/06/09 06:51:05;;;;;;;23.30;15.52;;;16.50;99.90;;;;;;4996321;28;20070;-84
2022/06/09 06:53:32;;;;;;;21.88;15.02;;;16.70;99.90;;;;;;4996997;28;20049;-84
2022/06/09 06:55:58;;;;;;;;;;;16.80;99.90;;;;;;4980980;28;20046;-83
2022/06/09 06:58:23;;;;;;;20.83;14.77;;;16.80;99.90;;;;;;5013318;28;20012;-84
2022/06/09 07:00:49;;;;;;;18.23;13.68;;;16.80;99.90;;;;;;5012922;28;20038;-84
2022/06/09 07:03:15;;;;;;;18.83;13.32;;;17.00;99.90;;;;;;4996367;28;20046;-83
2022/06/09 07:05:42;;;;;;;17.52;12.30;;;17.00;99.90;;;;;;5013329;28;20456;-83
2022/06/09 07:08:08;;;;;;;16.98;11.60;;;17.00;99.90;;;;;;4996346;28;20049;-83
2022/06/09 07:10:35;;;;;;;15.82;11.70;;;17.20;99.90;;;;;;4996242;28;20052;-83
2022/06/09 07:13:01;;;;;;;13.25;9.98;;;17.20;99.90;;;;;;5013500;28;20037;-84
2022/06/09 07:15:27;;;;;;;;;;;17.30;99.90;;;;;;5013118;28;20050;-84
2022/06/09 07:17:53;;;;;;;11.85;9.48;;;17.30;99.90;;;;;;5018163;28;19917;-83
2022/06/09 07:20:20;;;;;;;12.10;8.90;;;17.60;99.90;;;;;;5012450;28;20045;-84
2022/06/09 07:22:46;;;;;;;11.20;8.45;;;18.10;99.90;;;;;;5012577;28;20053;-84
2022/06/09 07:25:15;;;;;;;11.88;8.48;;;18.40;99.90;;;;;;5012311;28;20050;-84
2022/06/09 07:27:42;;;;;;;9.20;7.28;;;18.40;99.90;;;;;;4992884;28;20061;-84
2022/06/09 07:30:08;;;;;;;8.98;5.68;;;18.50;99.90;;;;;;4992522;28;20125;-84
2022/06/09 07:32:34;;;;;;;11.88;6.78;;;18.60;99.90;;;;;;4976876;28;20137;-84
2022/06/09 07:34:59;;;;;;;11.30;7.07;;;18.90;99.90;;;;;;4992921;28;20065;-84
2022/06/09 07:37:26;;;;;;;10.55;6.05;;;19.00;99.90;;;;;;4992622;28;20046;-84
2022/06/09 07:39:52;;;;;;;;;;;19.00;99.90;;;;;;4993056;28;20051;-84
2022/06/09 07:42:18;;;;;;;9.52;5.53;;;19.10;99.90;;;;;;5014974;28;20334;-83
2022/06/09 07:44:44;;;;;;;7.93;5.53;;;19.40;99.90;;;;;;4992450;28;20042;-84
2022/06/09 07:47:09;;;;;;;;;;;19.70;99.90;;;;;;4976456;28;20039;-84
2022/06/09 07:49:35;;;;;;;7.07;3.97;;;20.10;99.90;;;;;;4999123;28;20012;-84
2022/06/09 07:52:01;;;;;;;8.05;4.30;;;20.20;99.90;;;;;;5012312;28;20041;-84
2022/06/09 07:54:27;;;;;;;5.35;2.90;;;20.10;99.90;;;;;;5012181;28;20042;-84
2022/06/09 07:56:53;;;;;;;7.25;2.20;;;20.00;99.90;;;;;;4995421;28;20121;-84
2022/06/09 07:59:19;;;;;;;5.63;2.10;;;20.00;99.90;;;;;;4995287;28;20056;-84
2022/06/09 08:01:46;;;;;;;3.17;2.05;;;20.30;99.90;;;;;;5011784;28;20108;-84
2022/06/09 08:04:12;;;;;;;;;;;20.70;99.90;;;;;;5011826;28;20045;-85
2022/06/09 08:06:38;;;;;;;5.70;1.80;;;20.80;99.90;;;;;;4995617;28;19924;-85
2022/06/09 08:09:05;;;;;;;3.55;1.95;;;20.80;99.90;;;;;;5011536;28;20447;-84
2022/06/09 08:11:34;;;;;;;3.35;1.83;;;20.70;99.90;;;;;;4995539;28;20041;-85
2022/06/09 08:14:01;;;;;;;2.80;1.40;;;20.60;99.90;;;;;;5011803;28;20046;-85
2022/06/09 08:16:28;;;;;;;4.35;1.73;;;20.90;99.90;;;;;;5011365;28;20046;-85
2022/06/09 08:18:54;;;;;;;3.92;1.90;;;21.20;99.90;;;;;;5015843;28;20037;-85
2022/06/09 08:21:19;;;;;;;;;;;21.40;99.90;;;;;;5001143;28;20112;-84
2022/06/09 08:23:45;;;;;;;4.03;2.00;;;21.60;99.90;;;;;;5011696;28;19917;-84
2022/06/09 08:26:10;;;;;;;3.90;2.15;;;21.80;99.90;;;;;;5000195;28;20324;-85
2022/06/09 08:28:36;;;;;;;;;;;22.10;99.90;;;;;;5015059;28;20034;-85
2022/06/09 08:31:02;;;;;;;3.72;1.35;;;22.20;99.90;;;;;;5012140;28;20401;-85
2022/06/09 08:33:27;;;;;;;;;;;22.20;99.90;;;;;;5000453;28;20122;-84
2022/06/09 08:35:55;;;;;;;4.95;1.33;;;22.50;99.90;;;;;;5011719;28;20048;-85
2022/06/09 08:38:20;;;;;;;3.85;1.25;;;22.60;99.90;;;;;;4994958;28;20038;-85
2022/06/09 08:40:52;;;;;;;;;;;22.30;99.90;;;;;;5011726;28;20128;-85
2022/06/09 08:43:58;;;;;;;3.50;0.90;;;22.40;99.90;;;;;;5010574;28;19921;-85
2022/06/09 08:46:27;;;;;;;4.07;0.80;;;22.30;99.90;;;;;;5010855;28;20038;-83
2022/06/09 08:48:55;;;;;;;3.70;0.88;;;22.20;99.90;;;;;;5011301;28;20081;-85
2022/06/09 08:51:30;;;;;;;2.75;0.73;;;22.20;99.90;;;;;;4994750;28;20482;-84
2022/06/09 08:54:08;;;;;;;3.78;0.98;;;22.10;99.90;;;;;;5011546;28;20516;-85
2022/06/09 08:56:34;;;;;;;4.05;1.05;;;22.10;99.90;;;;;;5011196;28;20050;-85
2022/06/09 08:59:03;;;;;;;;;;;22.10;99.90;;;;;;5011635;28;20091;-85
2022/06/09 09:01:56;;;;;;;2.72;0.60;;;22.20;99.90;;;;;;4995669;28;19922;-86
2022/06/09 09:04:45;;;;;;;5.20;0.73;;;22.30;99.90;;;;;;5015054;28;20571;-84
2022/06/09 09:07:38;;;;;;;4.25;0.70;;;22.70;99.90;;;;;;5015143;28;20030;-85
2022/06/09 09:10:29;;;;;;;3.45;0.70;;;22.90;99.90;;;;;;4998651;28;20042;-84
2022/06/09 09:13:06;;;;;;;5.25;0.68;;;23.30;99.90;;;;;;5015004;28;20078;-84
2022/06/09 09:16:02;;;;;;;6.25;0.60;;;23.50;99.90;;;;;;4998876;28;20049;-84
2022/06/09 09:18:34;;;;;;;2.63;0.52;;;23.50;99.90;;;;;;4995131;28;20128;-85
2022/06/09 09:21:29;;;;;;;2.97;0.50;;;23.60;99.90;;;;;;4995220;28;20045;-84
2022/06/09 09:24:06;;;;;;;3.10;0.55;;;23.60;99.90;;;;;;4995595;28;20519;-84
2022/06/09 09:26:41;;;;;;;2.90;0.65;;;23.70;99.90;;;;;;4995410;28;20136;-84
2022/06/09 09:29:25;;;;;;;3.53;0.80;;;24.00;99.90;;;;;;4995032;28;20049;-85
2022/06/09 09:31:56;;;;;;;3.33;0.68;;;24.30;99.90;;;;;;4995257;28;20042;-85
2022/06/09 09:34:37;;;;;;;3.33;0.80;;;24.40;99.90;;;;;;4994702;28;20125;-85
2022/06/09 09:37:31;;;;;;;3.63;0.57;;;24.60;99.90;;;;;;5008255;28;20527;-86
2022/06/09 09:40:31;;;;;;;3.38;0.60;;;24.80;99.90;;;;;;4998521;28;20569;-85
2022/06/09 09:43:03;;;;;;;4.30;0.77;;;24.90;99.90;;;;;;5014424;28;20081;-85
2022/06/09 09:45:45;;;;;;;3.28;0.60;;;24.80;99.90;;;;;;5019260;28;20045;-84
2022/06/09 09:48:17;;;;;;;5.50;0.77;;;24.30;99.90;;;;;;4998232;28;20084;-84
2022/06/09 09:50:59;;;;;;;5.90;0.70;;;24.10;99.90;;;;;;4997956;28;20037;-85
2022/06/09 09:53:31;;;;;;;6.43;1.30;;;24.40;99.90;;;;;;4994375;28;20046;-84
2022/06/09 09:56:05;;;;;;;4.50;0.80;;;24.10;99.90;;;;;;4994748;28;20662;-85
2022/06/09 09:58:53;;;;;;;4.43;0.70;;;23.70;99.90;;;;;;4994612;28;20121;-86
2022/06/09 10:01:22;;;;;;;4.15;0.60;;;23.70;99.90;;;;;;4994551;28;20512;-86
2022/06/09 10:09:50;;;;;;;5.82;1.08;;;24.30;99.90;;;;;;4994375;28;20053;-85
2022/06/09 10:12:23;;;;;;;6.50;0.80;;;24.80;99.90;;;;;;4994242;28;20419;-85
2022/06/09 10:14:53;;;;;;;4.45;0.93;;;24.90;99.90;;;;;;5001556;28;20417;-85
2022/06/09 10:17:31;;;;;;;4.70;0.70;;;25.00;99.90;;;;;;5013895;28;20041;-85
2022/06/09 10:19:59;;;;;;;6.80;0.88;;;25.00;99.90;;;;;;5013696;28;20132;-86
2022/06/09 10:22:27;;;;;;;3.58;0.77;;;24.70;99.90;;;;;;5013599;28;20495;-86
2022/06/09 10:25:13;;;;;;;3.65;0.93;;;24.90;99.90;;;;;;5013744;28;20049;-85
2022/06/09 10:27:41;;;;;;;3.72;0.40;;;24.70;99.90;;;;;;5013860;28;20092;-85
2022/06/09 10:30:32;;;;;;;3.20;0.50;;;24.70;99.90;;;;;;4997023;28;20034;-86
2022/06/09 10:33:12;;;;;;;4.97;0.68;;;24.80;99.90;;;;;;5013449;28;20459;-85
2022/06/09 10:36:06;;;;;;;4.20;0.80;;;24.70;99.90;;;;;;5014022;28;20536;-86
2022/06/09 10:39:13;;;;;;;3.17;0.90;;;25.00;99.90;;;;;;5007480;28;20081;-85
2022/06/09 10:41:45;;;;;;;3.75;1.25;;;25.20;99.90;;;;;;5010631;28;20465;-84
2022/06/09 10:44:27;;;;;;;4.32;0.55;;;25.50;99.90;;;;;;4997114;28;20034;-85
2022/06/09 10:56:15;;;;;;;4.88;0.60;;;25.20;99.90;;;;;;5013294;28;20056;-85
2022/06/09 10:59:05;;;;;;;3.38;0.57;;;24.60;99.90;;;;;;5013473;28;20743;-85
2022/06/09 11:01:33;;;;;;;4.07;0.63;;;24.60;99.90;;;;;;5013436;28;20038;-86
2022/06/09 11:04:01;;;;;;;3.83;0.63;;;24.40;99.90;;;;;;4996941;28;20042;-86
2022/06/09 11:06:32;;;;;;;5.90;1.00;;;24.20;99.90;;;;;;4996159;28;20160;-86
2022/06/09 11:09:20;;;;;;;2.83;0.52;;;24.40;99.90;;;;;;5012885;28;20038;-86
2022/06/09 11:11:52;;;;;;;3.67;0.50;;;24.50;99.90;;;;;;5013154;28;20069;-86
2022/06/09 11:14:48;;;;;;;3.25;0.57;;;24.30;99.90;;;;;;4996260;28;20049;-86
2022/06/09 11:17:20;;;;;;;2.85;0.50;;;24.80;99.90;;;;;;5012605;28;20038;-86
2022/06/09 11:20:12;;;;;;;2.72;0.50;;;25.30;99.90;;;;;;5013121;28;20061;-86
2022/06/09 11:22:46;;;;;;;3.65;0.55;;;25.20;99.90;;;;;;4995544;28;20038;-86
2022/06/09 11:25:12;;;;;;;3.10;0.50;;;25.10;99.90;;;;;;5012190;28;20441;-86
2022/06/09 11:28:18;;;;;;;4.53;0.63;;;25.50;99.90;;;;;;5019187;28;20038;-87
2022/06/09 11:31:05;;;;;;;2.80;0.50;;;25.00;99.90;;;;;;5017243;28;20045;-87
2022/06/09 11:33:49;;;;;;;2.90;0.60;;;24.70;99.90;;;;;;5012349;28;20081;-87
2022/06/09 11:36:28;;;;;;;2.90;0.60;;;25.00;99.90;;;;;;5012289;28;20139;-84
2022/06/09 11:39:02;;;;;;;4.30;0.60;;;25.30;99.90;;;;;;4996020;28;20053;-85
2022/06/09 11:41:34;;;;;;;3.25;0.50;;;25.40;99.90;;;;;;4992400;28;20050;-85
2022/06/09 11:44:30;;;;;;;4.60;0.57;;;25.40;99.90;;;;;;4976883;28;20534;-85
2022/06/09 11:47:01;;;;;;;2.28;0.50;;;25.50;99.90;;;;;;4976769;28;20030;-85
2022/06/09 11:49:43;;;;;;;3.78;0.68;;;25.70;99.90;;;;;;4992484;28;20042;-86
2022/06/09 11:52:21;;;;;;;2.28;0.60;;;25.80;99.90;;;;;;4992340;28;20144;-85
2022/06/09 11:54:53;;;;;;;1.80;0.32;;;26.00;99.90;;;;;;4992553;28;20057;-85
2022/06/09 11:57:26;;;;;;;1.98;0.50;;;26.20;99.90;;;;;;5005099;28;20084;-86
2022/06/09 12:00:19;;;;;;;3.08;0.40;;;26.10;99.90;;;;;;5012061;28;20053;-86
2022/06/09 12:03:06;;;;;;;2.25;0.60;;;25.90;99.90;;;;;;4996037;28;20397;-86
2022/06/09 12:06:09;;;;;;;1.92;0.30;;;25.60;99.90;;;;;;5012277;28;20379;-86
2022/06/09 12:08:44;;;;;;;3.83;0.50;;;25.40;99.90;;;;;;4979660;28;20129;-86
2022/06/09 12:11:18;;;;;;;6.03;0.80;;;25.10;99.90;;;;;;5011810;28;20069;-86
2022/06/09 12:13:53;;;;;;;2.95;0.50;;;25.10;99.90;;;;;;4995384;28;20053;-86
2022/06/09 12:16:34;;;;;;;3.45;0.40;;;25.30;99.90;;;;;;4995383;28;20038;-86
2022/06/09 12:19:20;;;;;;;2.10;0.47;;;25.60;99.90;;;;;;5011733;28;20045;-85
2022/06/09 12:21:49;;;;;;;3.00;0.50;;;25.70;99.90;;;;;;5012095;28;20509;-86
2022/06/09 12:24:34;;;;;;;3.80;0.43;;;25.60;99.90;;;;;;4995426;28;20041;-85
2022/06/09 12:27:34;;;;;;;4.22;0.55;;;25.80;99.90;;;;;;5011542;28;20034;-86
2022/06/09 12:30:00;;;;;;;3.97;0.63;;;25.90;99.90;;;;;;4995202;28;20042;-84
2022/06/09 12:32:37;;;;;;;3.03;0.35;;;26.00;99.90;;;;;;4999649;28;20106;-84
2022/06/09 12:35:15;;;;;;;2.70;0.65;;;26.20;99.90;;;;;;4996344;28;20456;-86
2022/06/09 12:37:54;;;;;;;5.03;0.80;;;25.60;99.90;;;;;;5010807;28;20053;-86
2022/06/09 12:40:24;;;;;;;4.90;0.70;;;25.20;99.90;;;;;;5011335;28;20045;-86
2022/06/09 12:43:03;;;;;;;3.95;0.77;;;24.70;99.90;;;;;;4995177;28;20383;-86
2022/06/09 12:45:36;;;;;;;3.20;0.80;;;25.00;99.90;;;;;;5010991;28;20041;-86
2022/06/09 12:48:15;;;;;;;2.95;0.50;;;25.30;99.90;;;;;;4994904;28;20042;-85
2022/06/09 12:50:51;;;;;;;4.35;0.70;;;25.50;99.90;;;;;;5011231;28;20042;-87
2022/06/09 12:53:22;;;;;;;;;;;25.60;99.90;;;;;;4995505;28;20046;-86
2022/06/09 12:55:55;;;;;;;8.07;0.60;;;25.90;99.90;;;;;;4994800;28;20295;-86
2022/06/09 12:58:34;;;;;;;4.40;0.82;;;26.00;99.90;;;;;;4994684;28;20088;-86
2022/06/09 13:01:03;;;;;;;4.25;0.75;;;25.80;99.90;;;;;;5001001;28;20046;-86
2022/06/09 13:03:34;;;;;;;3.22;0.60;;;26.20;99.90;;;;;;5010770;28;20034;-86
2022/06/09 13:06:10;;;;;;;4.82;1.05;;;25.70;99.90;;;;;;4994864;28;20038;-86
2022/06/09 13:08:44;;;;;;;5.18;0.73;;;25.50;99.90;;;;;;4994939;28;20069;-87
2022/06/09 13:14:14;;;;;;;5.72;0.80;;;25.00;99.90;;;;;;5010615;28;20049;-85
2022/06/09 13:16:44;;;;;;;4.72;0.60;;;25.00;99.90;;;;;;4994637;28;20050;-86
2022/06/09 13:19:13;;;;;;;3.00;0.65;;;25.00;99.90;;;;;;5010788;28;20048;-85
2022/06/09 13:21:42;;;;;;;4.70;0.88;;;24.70;99.90;;;;;;4995534;28;20042;-86
2022/06/09 13:24:36;;;;;;;2.50;0.70;;;24.40;99.90;;;;;;5016696;28;20065;-85
2022/06/09 13:27:07;;;;;;;2.63;0.70;;;24.10;99.90;;;;;;5009390;28;20521;-86